sensor_id;sensor_type;location;lat;lon;timestamp;P1;durP1;ratioP1;P2;durP2;ratioP2
42598;SDS011;28225;42.714;23.860;2023-04-25T00:00:06;0.20;;;0.20;;
42598;SDS011;28225;42.714;23.860;2023-04-25T00:00:23;0.28;;;0.28;;
42598;SDS011;28225;42.714;23.860;2023-04-25T00:00:38;0.40;;;0.40;;
42598;SDS011;28225;42.714;23.860;2023-04-25T00:00:53;0.70;;;0.70;;
42598;SDS011;28225;42.714;23.860;2023-04-25T00:01:09;0.60;;;0.60;;
42598;SDS011;28225;42.714;23.860;2023-04-25T00:01:28;0.40;;;0.40;;
42598;SDS011;28225;42.714;23.860;2023-04-25T00:01:44;0.50;;;0.50;;
42598;SDS011;28225;42.714;23.860;2023-04-25T00:01:59;0.30;;;0.30;;
42598;SDS011;28225;42.714;23.860;2023-04-25T00:02:15;0.20;;;0.20;;
42598;SDS011;28225;42.714;23.860;2023-04-25T00:02:30;0.20;;;0.20;;
42598;SDS011;28225;42.714;23.860;2023-04-25T00:02:47;0.20;;;0.20;;
42598;SDS011;28225;42.714;23.860;2023-04-25T00:03:03;0.50;;;0.50;;
42598;SDS011;28225;42.714;23.860;2023-04-25T00:03:20;0.50;;;0.50;;
42598;SDS011;28225;42.714;23.860;2023-04-25T00:03:36;0.40;;;0.40;;
42598;SDS011;28225;42.714;23.860;2023-04-25T00:03:51;5.80;;;0.70;;
42598;SDS011;28225;42.714;23.860;2023-04-25T00:04:06;5.70;;;0.50;;
42598;SDS011;28225;42.714;23.860;2023-04-25T00:04:22;0.20;;;0.20;;
42598;SDS011;28225;42.714;23.860;2023-04-25T00:04:37;0.20;;;0.20;;
42598;SDS011;28225;42.714;23.860;2023-04-25T00:04:52;0.20;;;0.20;;
42598;SDS011;28225;42.714;23.860;2023-04-25T00:05:09;0.20;;;0.20;;
42598;SDS011;28225;42.714;23.860;2023-04-25T00:05:25;0.20;;;0.20;;
42598;SDS011;28225;42.714;23.860;2023-04-25T00:05:41;0.40;;;0.40;;
42598;SDS011;28225;42.714;23.860;2023-04-25T00:05:57;0.40;;;0.40;;
42598;SDS011;28225;42.714;23.860;2023-04-25T00:06:16;0.20;;;0.20;;
42598;SDS011;28225;42.714;23.860;2023-04-25T00:06:33;0.20;;;0.20;;
42598;SDS011;28225;42.714;23.860;2023-04-25T00:06:51;0.22;;;0.22;;
42598;SDS011;28225;42.714;23.860;2023-04-25T00:07:07;0.40;;;0.40;;
42598;SDS011;28225;42.714;23.860;2023-04-25T00:07:22;0.23;;;0.23;;
42598;SDS011;28225;42.714;23.860;2023-04-25T00:07:38;0.17;;;0.17;;
42598;SDS011;28225;42.714;23.860;2023-04-25T00:07:53;0.20;;;0.20;;
42598;SDS011;28225;42.714;23.860;2023-04-25T00:08:09;0.20;;;0.20;;
42598;SDS011;28225;42.714;23.860;2023-04-25T00:08:24;0.20;;;0.20;;
42598;SDS011;28225;42.714;23.860;2023-04-25T00:08:40;0.30;;;0.30;;
42598;SDS011;28225;42.714;23.860;2023-04-25T00:08:55;0.30;;;0.30;;
42598;SDS011;28225;42.714;23.860;2023-04-25T00:09:11;0.50;;;0.50;;
42598;SDS011;28225;42.714;23.860;2023-04-25T00:09:27;0.55;;;0.55;;
42598;SDS011;28225;42.714;23.860;2023-04-25T00:09:42;0.30;;;0.30;;
42598;SDS011;28225;42.714;23.860;2023-04-25T00:09:58;0.20;;;0.20;;
42598;SDS011;28225;42.714;23.860;2023-04-25T00:10:13;0.40;;;0.40;;
42598;SDS011;28225;42.714;23.860;2023-04-25T00:10:29;0.50;;;0.50;;
42598;SDS011;28225;42.714;23.860;2023-04-25T00:10:44;0.50;;;0.50;;
42598;SDS011;28225;42.714;23.860;2023-04-25T00:11:00;0.40;;;0.40;;
42598;SDS011;28225;42.714;23.860;2023-04-25T00:11:15;0.20;;;0.20;;
42598;SDS011;28225;42.714;23.860;2023-04-25T00:11:31;0.20;;;0.20;;
42598;SDS011;28225;42.714;23.860;2023-04-25T00:11:46;0.20;;;0.20;;
42598;SDS011;28225;42.714;23.860;2023-04-25T00:12:01;0.20;;;0.20;;
42598;SDS011;28225;42.714;23.860;2023-04-25T00:12:17;0.20;;;0.20;;
42598;SDS011;28225;42.714;23.860;2023-04-25T00:12:32;0.20;;;0.20;;
42598;SDS011;28225;42.714;23.860;2023-04-25T00:12:48;0.20;;;0.20;;
42598;SDS011;28225;42.714;23.860;2023-04-25T00:13:04;0.20;;;0.20;;
42598;SDS011;28225;42.714;23.860;2023-04-25T00:13:19;0.20;;;0.20;;
42598;SDS011;28225;42.714;23.860;2023-04-25T00:13:35;4.40;;;1.00;;
42598;SDS011;28225;42.714;23.860;2023-04-25T00:13:50;4.70;;;1.20;;
42598;SDS011;28225;42.714;23.860;2023-04-25T00:14:06;0.40;;;0.40;;
42598;SDS011;28225;42.714;23.860;2023-04-25T00:14:21;0.20;;;0.20;;
42598;SDS011;28225;42.714;23.860;2023-04-25T00:14:37;0.30;;;0.30;;
42598;SDS011;28225;42.714;23.860;2023-04-25T00:14:53;0.20;;;0.20;;
42598;SDS011;28225;42.714;23.860;2023-04-25T00:15:11;0.13;;;0.13;;
42598;SDS011;28225;42.714;23.860;2023-04-25T00:15:27;0.20;;;0.20;;
42598;SDS011;28225;42.714;23.860;2023-04-25T00:15:42;0.20;;;0.20;;
42598;SDS011;28225;42.714;23.860;2023-04-25T00:15:58;0.10;;;0.10;;
42598;SDS011;28225;42.714;23.860;2023-04-25T00:16:13;0.20;;;0.20;;
42598;SDS011;28225;42.714;23.860;2023-04-25T00:16:30;0.30;;;0.30;;
42598;SDS011;28225;42.714;23.860;2023-04-25T00:16:48;0.30;;;0.30;;
42598;SDS011;28225;42.714;23.860;2023-04-25T00:17:06;0.25;;;0.25;;
42598;SDS011;28225;42.714;23.860;2023-04-25T00:17:22;0.20;;;0.20;;
42598;SDS011;28225;42.714;23.860;2023-04-25T00:17:39;0.20;;;0.20;;
42598;SDS011;28225;42.714;23.860;2023-04-25T00:17:54;0.20;;;0.20;;
42598;SDS011;28225;42.714;23.860;2023-04-25T00:18:10;0.20;;;0.20;;
42598;SDS011;28225;42.714;23.860;2023-04-25T00:18:26;0.20;;;0.20;;
42598;SDS011;28225;42.714;23.860;2023-04-25T00:18:44;0.10;;;0.10;;
42598;SDS011;28225;42.714;23.860;2023-04-25T00:19:01;0.20;;;0.20;;
42598;SDS011;28225;42.714;23.860;2023-04-25T00:19:17;0.20;;;0.20;;
42598;SDS011;28225;42.714;23.860;2023-04-25T00:19:32;0.30;;;0.30;;
42598;SDS011;28225;42.714;23.860;2023-04-25T00:19:50;0.40;;;0.40;;
42598;SDS011;28225;42.714;23.860;2023-04-25T00:20:05;0.40;;;0.40;;
42598;SDS011;28225;42.714;23.860;2023-04-25T00:20:23;0.57;;;0.43;;
42598;SDS011;28225;42.714;23.860;2023-04-25T00:20:39;0.70;;;0.50;;
42598;SDS011;28225;42.714;23.860;2023-04-25T00:20:55;0.20;;;0.20;;
42598;SDS011;28225;42.714;23.860;2023-04-25T00:21:11;0.25;;;0.25;;
42598;SDS011;28225;42.714;23.860;2023-04-25T00:21:26;0.30;;;0.30;;
42598;SDS011;28225;42.714;23.860;2023-04-25T00:21:43;0.13;;;0.13;;
42598;SDS011;28225;42.714;23.860;2023-04-25T00:22:01;0.30;;;0.30;;
42598;SDS011;28225;42.714;23.860;2023-04-25T00:22:16;0.30;;;0.30;;
42598;SDS011;28225;42.714;23.860;2023-04-25T00:22:32;0.30;;;0.30;;
42598;SDS011;28225;42.714;23.860;2023-04-25T00:22:49;0.20;;;0.20;;
42598;SDS011;28225;42.714;23.860;2023-04-25T00:23:04;0.40;;;0.40;;
42598;SDS011;28225;42.714;23.860;2023-04-25T00:23:20;0.80;;;0.63;;
42598;SDS011;28225;42.714;23.860;2023-04-25T00:23:35;0.60;;;0.50;;
42598;SDS011;28225;42.714;23.860;2023-04-25T00:23:54;0.20;;;0.20;;
42598;SDS011;28225;42.714;23.860;2023-04-25T00:24:10;0.20;;;0.20;;
42598;SDS011;28225;42.714;23.860;2023-04-25T00:24:25;0.20;;;0.20;;
42598;SDS011;28225;42.714;23.860;2023-04-25T00:24:41;0.17;;;0.17;;
42598;SDS011;28225;42.714;23.860;2023-04-25T00:24:56;0.20;;;0.20;;
42598;SDS011;28225;42.714;23.860;2023-04-25T00:25:15;0.28;;;0.28;;
42598;SDS011;28225;42.714;23.860;2023-04-25T00:25:30;0.30;;;0.30;;
42598;SDS011;28225;42.714;23.860;2023-04-25T00:25:46;0.20;;;0.20;;
42598;SDS011;28225;42.714;23.860;2023-04-25T00:26:02;0.30;;;0.30;;
42598;SDS011;28225;42.714;23.860;2023-04-25T00:26:18;0.40;;;0.40;;
42598;SDS011;28225;42.714;23.860;2023-04-25T00:26:34;0.28;;;0.28;;
42598;SDS011;28225;42.714;23.860;2023-04-25T00:26:50;0.30;;;0.30;;
42598;SDS011;28225;42.714;23.860;2023-04-25T00:27:06;0.30;;;0.30;;
42598;SDS011;28225;42.714;23.860;2023-04-25T00:27:21;0.20;;;0.20;;
42598;SDS011;28225;42.714;23.860;2023-04-25T00:27:36;0.20;;;0.20;;
42598;SDS011;28225;42.714;23.860;2023-04-25T00:27:54;0.30;;;0.30;;
42598;SDS011;28225;42.714;23.860;2023-04-25T00:28:10;0.30;;;0.30;;
42598;SDS011;28225;42.714;23.860;2023-04-25T00:28:26;0.38;;;0.38;;
42598;SDS011;28225;42.714;23.860;2023-04-25T00:28:41;0.30;;;0.30;;
42598;SDS011;28225;42.714;23.860;2023-04-25T00:28:56;0.20;;;0.20;;
42598;SDS011;28225;42.714;23.860;2023-04-25T00:29:12;0.90;;;0.90;;
42598;SDS011;28225;42.714;23.860;2023-04-25T00:29:27;0.90;;;0.90;;
42598;SDS011;28225;42.714;23.860;2023-04-25T00:29:42;0.20;;;0.20;;
42598;SDS011;28225;42.714;23.860;2023-04-25T00:29:58;0.30;;;0.30;;
42598;SDS011;28225;42.714;23.860;2023-04-25T00:30:13;0.30;;;0.30;;
42598;SDS011;28225;42.714;23.860;2023-04-25T00:30:29;0.20;;;0.20;;
42598;SDS011;28225;42.714;23.860;2023-04-25T00:30:44;0.30;;;0.30;;
42598;SDS011;28225;42.714;23.860;2023-04-25T00:31:00;0.20;;;0.20;;
42598;SDS011;28225;42.714;23.860;2023-04-25T00:31:15;0.20;;;0.20;;
42598;SDS011;28225;42.714;23.860;2023-04-25T00:31:31;0.20;;;0.20;;
42598;SDS011;28225;42.714;23.860;2023-04-25T00:31:46;0.20;;;0.20;;
42598;SDS011;28225;42.714;23.860;2023-04-25T00:32:01;0.20;;;0.20;;
42598;SDS011;28225;42.714;23.860;2023-04-25T00:32:17;1.50;;;0.70;;
42598;SDS011;28225;42.714;23.860;2023-04-25T00:32:32;1.53;;;0.70;;
42598;SDS011;28225;42.714;23.860;2023-04-25T00:32:48;0.50;;;0.50;;
42598;SDS011;28225;42.714;23.860;2023-04-25T00:33:03;0.50;;;0.50;;
42598;SDS011;28225;42.714;23.860;2023-04-25T00:33:19;0.30;;;0.30;;
42598;SDS011;28225;42.714;23.860;2023-04-25T00:33:34;0.30;;;0.30;;
42598;SDS011;28225;42.714;23.860;2023-04-25T00:33:50;0.15;;;0.15;;
42598;SDS011;28225;42.714;23.860;2023-04-25T00:34:06;0.20;;;0.20;;
42598;SDS011;28225;42.714;23.860;2023-04-25T00:34:22;0.20;;;0.20;;
42598;SDS011;28225;42.714;23.860;2023-04-25T00:34:37;0.30;;;0.30;;
42598;SDS011;28225;42.714;23.860;2023-04-25T00:34:52;0.50;;;0.50;;
42598;SDS011;28225;42.714;23.860;2023-04-25T00:35:08;0.47;;;0.47;;
42598;SDS011;28225;42.714;23.860;2023-04-25T00:35:24;0.40;;;0.40;;
42598;SDS011;28225;42.714;23.860;2023-04-25T00:35:39;0.70;;;0.70;;
42598;SDS011;28225;42.714;23.860;2023-04-25T00:35:55;0.52;;;0.52;;
42598;SDS011;28225;42.714;23.860;2023-04-25T00:36:10;0.20;;;0.20;;
42598;SDS011;28225;42.714;23.860;2023-04-25T00:36:26;0.20;;;0.20;;
42598;SDS011;28225;42.714;23.860;2023-04-25T00:36:42;0.25;;;0.25;;
42598;SDS011;28225;42.714;23.860;2023-04-25T00:36:57;0.20;;;0.20;;
42598;SDS011;28225;42.714;23.860;2023-04-25T00:37:13;0.60;;;0.60;;
42598;SDS011;28225;42.714;23.860;2023-04-25T00:37:28;0.60;;;0.60;;
42598;SDS011;28225;42.714;23.860;2023-04-25T00:37:44;0.20;;;0.20;;
42598;SDS011;28225;42.714;23.860;2023-04-25T00:38:00;0.70;;;0.70;;
42598;SDS011;28225;42.714;23.860;2023-04-25T00:38:15;0.80;;;0.80;;
42598;SDS011;28225;42.714;23.860;2023-04-25T00:38:31;0.20;;;0.20;;
42598;SDS011;28225;42.714;23.860;2023-04-25T00:38:47;0.30;;;0.30;;
42598;SDS011;28225;42.714;23.860;2023-04-25T00:39:02;0.57;;;0.57;;
42598;SDS011;28225;42.714;23.860;2023-04-25T00:39:19;0.40;;;0.40;;
42598;SDS011;28225;42.714;23.860;2023-04-25T00:39:34;0.60;;;0.60;;
42598;SDS011;28225;42.714;23.860;2023-04-25T00:39:50;1.00;;;1.00;;
42598;SDS011;28225;42.714;23.860;2023-04-25T00:40:06;1.10;;;1.07;;
42598;SDS011;28225;42.714;23.860;2023-04-25T00:40:21;0.70;;;0.70;;
42598;SDS011;28225;42.714;23.860;2023-04-25T00:40:37;1.60;;;1.10;;
42598;SDS011;28225;42.714;23.860;2023-04-25T00:40:52;1.70;;;1.10;;
42598;SDS011;28225;42.714;23.860;2023-04-25T00:41:08;0.30;;;0.30;;
42598;SDS011;28225;42.714;23.860;2023-04-25T00:41:25;0.70;;;0.70;;
42598;SDS011;28225;42.714;23.860;2023-04-25T00:41:41;0.60;;;0.60;;
42598;SDS011;28225;42.714;23.860;2023-04-25T00:41:56;0.23;;;0.23;;
42598;SDS011;28225;42.714;23.860;2023-04-25T00:42:12;0.30;;;0.30;;
42598;SDS011;28225;42.714;23.860;2023-04-25T00:42:28;0.52;;;0.52;;
42598;SDS011;28225;42.714;23.860;2023-04-25T00:42:44;0.65;;;0.65;;
42598;SDS011;28225;42.714;23.860;2023-04-25T00:43:00;0.70;;;0.70;;
42598;SDS011;28225;42.714;23.860;2023-04-25T00:43:15;1.87;;;0.83;;
42598;SDS011;28225;42.714;23.860;2023-04-25T00:43:31;1.80;;;0.70;;
42598;SDS011;28225;42.714;23.860;2023-04-25T00:43:47;0.60;;;0.60;;
42598;SDS011;28225;42.714;23.860;2023-04-25T00:44:03;0.50;;;0.50;;
42598;SDS011;28225;42.714;23.860;2023-04-25T00:44:19;0.22;;;0.22;;
42598;SDS011;28225;42.714;23.860;2023-04-25T00:44:35;0.32;;;0.32;;
42598;SDS011;28225;42.714;23.860;2023-04-25T00:44:51;0.53;;;0.53;;
42598;SDS011;28225;42.714;23.860;2023-04-25T00:45:07;0.65;;;0.65;;
42598;SDS011;28225;42.714;23.860;2023-04-25T00:45:28;0.70;;;0.70;;
42598;SDS011;28225;42.714;23.860;2023-04-25T00:45:44;3.03;;;1.08;;
42598;SDS011;28225;42.714;23.860;2023-04-25T00:46:02;5.40;;;1.67;;
42598;SDS011;28225;42.714;23.860;2023-04-25T00:46:17;1.42;;;1.23;;
42598;SDS011;28225;42.714;23.860;2023-04-25T00:46:33;1.30;;;1.00;;
42598;SDS011;28225;42.714;23.860;2023-04-25T00:46:48;1.20;;;1.20;;
42598;SDS011;28225;42.714;23.860;2023-04-25T00:47:04;1.48;;;1.38;;
42598;SDS011;28225;42.714;23.860;2023-04-25T00:47:20;1.90;;;1.77;;
42598;SDS011;28225;42.714;23.860;2023-04-25T00:47:35;3.97;;;2.65;;
42598;SDS011;28225;42.714;23.860;2023-04-25T00:47:51;3.50;;;2.43;;
42598;SDS011;28225;42.714;23.860;2023-04-25T00:48:06;3.28;;;1.92;;
42598;SDS011;28225;42.714;23.860;2023-04-25T00:48:22;3.60;;;1.90;;
42598;SDS011;28225;42.714;23.860;2023-04-25T00:48:37;2.20;;;1.85;;
42598;SDS011;28225;42.714;23.860;2023-04-25T00:48:53;4.70;;;3.50;;
42598;SDS011;28225;42.714;23.860;2023-04-25T00:49:08;4.13;;;3.43;;
42598;SDS011;28225;42.714;23.860;2023-04-25T00:49:28;2.95;;;2.75;;
42598;SDS011;28225;42.714;23.860;2023-04-25T00:49:44;3.77;;;3.43;;
42598;SDS011;28225;42.714;23.860;2023-04-25T00:49:59;4.07;;;2.85;;
42598;SDS011;28225;42.714;23.860;2023-04-25T00:50:15;2.97;;;2.30;;
42598;SDS011;28225;42.714;23.860;2023-04-25T00:50:30;1.33;;;1.30;;
42598;SDS011;28225;42.714;23.860;2023-04-25T00:50:48;0.93;;;0.93;;
42598;SDS011;28225;42.714;23.860;2023-04-25T00:51:07;1.80;;;1.70;;
42598;SDS011;28225;42.714;23.860;2023-04-25T00:51:22;0.90;;;0.90;;
42598;SDS011;28225;42.714;23.860;2023-04-25T00:51:37;0.90;;;0.90;;
42598;SDS011;28225;42.714;23.860;2023-04-25T00:51:53;1.40;;;1.30;;
42598;SDS011;28225;42.714;23.860;2023-04-25T00:52:09;1.35;;;1.25;;
42598;SDS011;28225;42.714;23.860;2023-04-25T00:52:25;1.42;;;1.33;;
42598;SDS011;28225;42.714;23.860;2023-04-25T00:52:41;1.70;;;1.55;;
42598;SDS011;28225;42.714;23.860;2023-04-25T00:52:58;0.68;;;0.68;;
42598;SDS011;28225;42.714;23.860;2023-04-25T00:53:14;0.50;;;0.50;;
42598;SDS011;28225;42.714;23.860;2023-04-25T00:53:29;0.50;;;0.50;;
42598;SDS011;28225;42.714;23.860;2023-04-25T00:53:47;0.60;;;0.60;;
42598;SDS011;28225;42.714;23.860;2023-04-25T00:54:04;0.40;;;0.40;;
42598;SDS011;28225;42.714;23.860;2023-04-25T00:54:20;0.40;;;0.40;;
42598;SDS011;28225;42.714;23.860;2023-04-25T00:54:35;0.35;;;0.35;;
42598;SDS011;28225;42.714;23.860;2023-04-25T00:54:51;0.30;;;0.30;;
42598;SDS011;28225;42.714;23.860;2023-04-25T00:55:06;0.47;;;0.47;;
42598;SDS011;28225;42.714;23.860;2023-04-25T00:55:22;0.68;;;0.68;;
42598;SDS011;28225;42.714;23.860;2023-04-25T00:55:37;0.45;;;0.45;;
42598;SDS011;28225;42.714;23.860;2023-04-25T00:55:53;0.30;;;0.30;;
42598;SDS011;28225;42.714;23.860;2023-04-25T00:56:09;0.20;;;0.20;;
42598;SDS011;28225;42.714;23.860;2023-04-25T00:56:24;0.30;;;0.30;;
42598;SDS011;28225;42.714;23.860;2023-04-25T00:56:40;0.30;;;0.30;;
42598;SDS011;28225;42.714;23.860;2023-04-25T00:56:56;0.17;;;0.17;;
42598;SDS011;28225;42.714;23.860;2023-04-25T00:57:12;0.20;;;0.20;;
42598;SDS011;28225;42.714;23.860;2023-04-25T00:57:27;0.20;;;0.20;;
42598;SDS011;28225;42.714;23.860;2023-04-25T00:57:43;0.30;;;0.30;;
42598;SDS011;28225;42.714;23.860;2023-04-25T00:57:58;0.30;;;0.30;;
42598;SDS011;28225;42.714;23.860;2023-04-25T00:58:14;0.60;;;0.60;;
42598;SDS011;28225;42.714;23.860;2023-04-25T00:58:29;0.70;;;0.70;;
42598;SDS011;28225;42.714;23.860;2023-04-25T00:58:45;1.00;;;0.90;;
42598;SDS011;28225;42.714;23.860;2023-04-25T00:59:00;1.00;;;0.90;;
42598;SDS011;28225;42.714;23.860;2023-04-25T00:59:16;0.40;;;0.40;;
42598;SDS011;28225;42.714;23.860;2023-04-25T00:59:32;0.40;;;0.40;;
42598;SDS011;28225;42.714;23.860;2023-04-25T00:59:48;0.17;;;0.17;;
42598;SDS011;28225;42.714;23.860;2023-04-25T01:00:06;0.40;;;0.40;;
42598;SDS011;28225;42.714;23.860;2023-04-25T01:00:22;0.10;;;0.10;;
42598;SDS011;28225;42.714;23.860;2023-04-25T01:00:37;0.20;;;0.20;;
42598;SDS011;28225;42.714;23.860;2023-04-25T01:00:53;0.35;;;0.35;;
42598;SDS011;28225;42.714;23.860;2023-04-25T01:01:08;0.60;;;0.60;;
42598;SDS011;28225;42.714;23.860;2023-04-25T01:01:25;0.45;;;0.45;;
42598;SDS011;28225;42.714;23.860;2023-04-25T01:01:40;2.40;;;0.90;;
42598;SDS011;28225;42.714;23.860;2023-04-25T01:01:56;2.30;;;0.75;;
42598;SDS011;28225;42.714;23.860;2023-04-25T01:02:12;0.30;;;0.30;;
42598;SDS011;28225;42.714;23.860;2023-04-25T01:02:27;0.20;;;0.20;;
42598;SDS011;28225;42.714;23.860;2023-04-25T01:02:44;0.17;;;0.17;;
42598;SDS011;28225;42.714;23.860;2023-04-25T01:03:00;0.20;;;0.20;;
42598;SDS011;28225;42.714;23.860;2023-04-25T01:03:16;0.17;;;0.17;;
42598;SDS011;28225;42.714;23.860;2023-04-25T01:03:34;0.25;;;0.25;;
42598;SDS011;28225;42.714;23.860;2023-04-25T01:03:55;0.50;;;0.50;;
42598;SDS011;28225;42.714;23.860;2023-04-25T01:04:11;0.40;;;0.40;;
42598;SDS011;28225;42.714;23.860;2023-04-25T01:04:26;0.20;;;0.20;;
42598;SDS011;28225;42.714;23.860;2023-04-25T01:04:42;0.20;;;0.20;;
42598;SDS011;28225;42.714;23.860;2023-04-25T01:04:57;0.20;;;0.20;;
42598;SDS011;28225;42.714;23.860;2023-04-25T01:05:13;0.10;;;0.10;;
42598;SDS011;28225;42.714;23.860;2023-04-25T01:05:29;0.17;;;0.17;;
42598;SDS011;28225;42.714;23.860;2023-04-25T01:05:44;0.20;;;0.20;;
42598;SDS011;28225;42.714;23.860;2023-04-25T01:06:00;0.10;;;0.10;;
42598;SDS011;28225;42.714;23.860;2023-04-25T01:06:16;0.60;;;0.60;;
42598;SDS011;28225;42.714;23.860;2023-04-25T01:06:31;0.60;;;0.60;;
42598;SDS011;28225;42.714;23.860;2023-04-25T01:06:47;0.20;;;0.20;;
42598;SDS011;28225;42.714;23.860;2023-04-25T01:07:03;0.22;;;0.22;;
42598;SDS011;28225;42.714;23.860;2023-04-25T01:07:18;0.20;;;0.20;;
42598;SDS011;28225;42.714;23.860;2023-04-25T01:07:34;0.20;;;0.20;;
42598;SDS011;28225;42.714;23.860;2023-04-25T01:07:50;0.20;;;0.20;;
42598;SDS011;28225;42.714;23.860;2023-04-25T01:08:05;0.30;;;0.30;;
42598;SDS011;28225;42.714;23.860;2023-04-25T01:08:21;0.20;;;0.20;;
42598;SDS011;28225;42.714;23.860;2023-04-25T01:08:38;0.10;;;0.10;;
42598;SDS011;28225;42.714;23.860;2023-04-25T01:08:54;0.10;;;0.10;;
42598;SDS011;28225;42.714;23.860;2023-04-25T01:09:10;0.20;;;0.20;;
42598;SDS011;28225;42.714;23.860;2023-04-25T01:09:25;0.20;;;0.20;;
42598;SDS011;28225;42.714;23.860;2023-04-25T01:09:40;0.20;;;0.20;;
42598;SDS011;28225;42.714;23.860;2023-04-25T01:09:56;0.20;;;0.20;;
42598;SDS011;28225;42.714;23.860;2023-04-25T01:10:11;0.20;;;0.20;;
42598;SDS011;28225;42.714;23.860;2023-04-25T01:10:27;0.20;;;0.20;;
42598;SDS011;28225;42.714;23.860;2023-04-25T01:10:42;0.20;;;0.20;;
42598;SDS011;28225;42.714;23.860;2023-04-25T01:10:58;0.20;;;0.20;;
42598;SDS011;28225;42.714;23.860;2023-04-25T01:11:13;0.10;;;0.10;;
42598;SDS011;28225;42.714;23.860;2023-04-25T01:11:28;0.40;;;0.40;;
42598;SDS011;28225;42.714;23.860;2023-04-25T01:11:44;0.40;;;0.40;;
42598;SDS011;28225;42.714;23.860;2023-04-25T01:12:00;0.50;;;0.50;;
42598;SDS011;28225;42.714;23.860;2023-04-25T01:12:16;0.52;;;0.52;;
42598;SDS011;28225;42.714;23.860;2023-04-25T01:12:31;0.40;;;0.40;;
42598;SDS011;28225;42.714;23.860;2023-04-25T01:12:47;0.40;;;0.40;;
42598;SDS011;28225;42.714;23.860;2023-04-25T01:13:02;0.20;;;0.20;;
42598;SDS011;28225;42.714;23.860;2023-04-25T01:13:18;0.20;;;0.20;;
42598;SDS011;28225;42.714;23.860;2023-04-25T01:13:34;0.20;;;0.20;;
42598;SDS011;28225;42.714;23.860;2023-04-25T01:13:50;0.20;;;0.20;;
42598;SDS011;28225;42.714;23.860;2023-04-25T01:14:05;0.20;;;0.20;;
42598;SDS011;28225;42.714;23.860;2023-04-25T01:14:21;0.10;;;0.10;;
42598;SDS011;28225;42.714;23.860;2023-04-25T01:14:36;0.30;;;0.30;;
42598;SDS011;28225;42.714;23.860;2023-04-25T01:14:52;0.37;;;0.37;;
42598;SDS011;28225;42.714;23.860;2023-04-25T01:15:07;0.50;;;0.50;;
42598;SDS011;28225;42.714;23.860;2023-04-25T01:15:23;0.40;;;0.40;;
42598;SDS011;28225;42.714;23.860;2023-04-25T01:15:38;0.20;;;0.20;;
42598;SDS011;28225;42.714;23.860;2023-04-25T01:15:54;0.20;;;0.20;;
42598;SDS011;28225;42.714;23.860;2023-04-25T01:16:09;0.30;;;0.30;;
42598;SDS011;28225;42.714;23.860;2023-04-25T01:16:25;0.20;;;0.20;;
42598;SDS011;28225;42.714;23.860;2023-04-25T01:16:41;0.20;;;0.20;;
42598;SDS011;28225;42.714;23.860;2023-04-25T01:16:57;0.20;;;0.20;;
42598;SDS011;28225;42.714;23.860;2023-04-25T01:17:14;0.10;;;0.10;;
42598;SDS011;28225;42.714;23.860;2023-04-25T01:17:30;0.10;;;0.10;;
42598;SDS011;28225;42.714;23.860;2023-04-25T01:17:46;0.20;;;0.20;;
42598;SDS011;28225;42.714;23.860;2023-04-25T01:18:02;0.30;;;0.30;;
42598;SDS011;28225;42.714;23.860;2023-04-25T01:18:20;0.30;;;0.30;;
42598;SDS011;28225;42.714;23.860;2023-04-25T01:18:38;0.20;;;0.20;;
42598;SDS011;28225;42.714;23.860;2023-04-25T01:18:53;3.00;;;0.60;;
42598;SDS011;28225;42.714;23.860;2023-04-25T01:19:10;3.00;;;0.70;;
42598;SDS011;28225;42.714;23.860;2023-04-25T01:19:29;0.32;;;0.32;;
42598;SDS011;28225;42.714;23.860;2023-04-25T01:19:44;0.10;;;0.10;;
42598;SDS011;28225;42.714;23.860;2023-04-25T01:20:03;0.10;;;0.10;;
42598;SDS011;28225;42.714;23.860;2023-04-25T01:20:20;0.10;;;0.10;;
42598;SDS011;28225;42.714;23.860;2023-04-25T01:20:37;0.10;;;0.10;;
42598;SDS011;28225;42.714;23.860;2023-04-25T01:20:53;0.40;;;0.40;;
42598;SDS011;28225;42.714;23.860;2023-04-25T01:21:10;0.50;;;0.50;;
42598;SDS011;28225;42.714;23.860;2023-04-25T01:21:26;0.40;;;0.40;;
42598;SDS011;28225;42.714;23.860;2023-04-25T01:21:43;1.70;;;0.60;;
42598;SDS011;28225;42.714;23.860;2023-04-25T01:21:58;1.70;;;0.50;;
42598;SDS011;28225;42.714;23.860;2023-04-25T01:22:14;0.25;;;0.25;;
42598;SDS011;28225;42.714;23.860;2023-04-25T01:22:31;0.22;;;0.22;;
42598;SDS011;28225;42.714;23.860;2023-04-25T01:22:47;0.25;;;0.25;;
42598;SDS011;28225;42.714;23.860;2023-04-25T01:23:02;0.30;;;0.30;;
42598;SDS011;28225;42.714;23.860;2023-04-25T01:23:18;0.30;;;0.30;;
42598;SDS011;28225;42.714;23.860;2023-04-25T01:23:38;0.30;;;0.30;;
42598;SDS011;28225;42.714;23.860;2023-04-25T01:23:55;0.70;;;0.50;;
42598;SDS011;28225;42.714;23.860;2023-04-25T01:24:10;0.70;;;0.40;;
42598;SDS011;28225;42.714;23.860;2023-04-25T01:24:26;1.00;;;0.50;;
42598;SDS011;28225;42.714;23.860;2023-04-25T01:24:41;0.80;;;0.53;;
42598;SDS011;28225;42.714;23.860;2023-04-25T01:24:57;0.30;;;0.30;;
42598;SDS011;28225;42.714;23.860;2023-04-25T01:25:13;0.30;;;0.30;;
42598;SDS011;28225;42.714;23.860;2023-04-25T01:25:32;0.30;;;0.30;;
42598;SDS011;28225;42.714;23.860;2023-04-25T01:25:48;0.10;;;0.10;;
42598;SDS011;28225;42.714;23.860;2023-04-25T01:26:04;0.20;;;0.20;;
42598;SDS011;28225;42.714;23.860;2023-04-25T01:26:21;0.32;;;0.32;;
42598;SDS011;28225;42.714;23.860;2023-04-25T01:26:37;1.23;;;1.05;;
42598;SDS011;28225;42.714;23.860;2023-04-25T01:26:53;1.23;;;1.02;;
42598;SDS011;28225;42.714;23.860;2023-04-25T01:27:11;0.30;;;0.30;;
42598;SDS011;28225;42.714;23.860;2023-04-25T01:27:27;0.20;;;0.20;;
42598;SDS011;28225;42.714;23.860;2023-04-25T01:27:42;0.17;;;0.17;;
42598;SDS011;28225;42.714;23.860;2023-04-25T01:27:58;1.20;;;0.70;;
42598;SDS011;28225;42.714;23.860;2023-04-25T01:28:13;1.10;;;0.67;;
42598;SDS011;28225;42.714;23.860;2023-04-25T01:28:29;0.20;;;0.20;;
42598;SDS011;28225;42.714;23.860;2023-04-25T01:28:45;0.40;;;0.40;;
42598;SDS011;28225;42.714;23.860;2023-04-25T01:29:00;0.60;;;0.60;;
42598;SDS011;28225;42.714;23.860;2023-04-25T01:29:16;0.40;;;0.40;;
42598;SDS011;28225;42.714;23.860;2023-04-25T01:29:32;0.20;;;0.20;;
42598;SDS011;28225;42.714;23.860;2023-04-25T01:29:48;0.20;;;0.20;;
42598;SDS011;28225;42.714;23.860;2023-04-25T01:30:04;1.00;;;0.50;;
42598;SDS011;28225;42.714;23.860;2023-04-25T01:30:20;1.10;;;0.60;;
42598;SDS011;28225;42.714;23.860;2023-04-25T01:30:36;0.60;;;0.60;;
42598;SDS011;28225;42.714;23.860;2023-04-25T01:30:52;0.37;;;0.37;;
42598;SDS011;28225;42.714;23.860;2023-04-25T01:31:08;0.10;;;0.10;;
42598;SDS011;28225;42.714;23.860;2023-04-25T01:31:24;0.10;;;0.10;;
42598;SDS011;28225;42.714;23.860;2023-04-25T01:31:39;0.20;;;0.20;;
42598;SDS011;28225;42.714;23.860;2023-04-25T01:31:55;0.50;;;0.50;;
42598;SDS011;28225;42.714;23.860;2023-04-25T01:32:10;0.50;;;0.50;;
42598;SDS011;28225;42.714;23.860;2023-04-25T01:32:25;0.20;;;0.20;;
42598;SDS011;28225;42.714;23.860;2023-04-25T01:32:41;0.50;;;0.50;;
42598;SDS011;28225;42.714;23.860;2023-04-25T01:32:57;0.50;;;0.50;;
42598;SDS011;28225;42.714;23.860;2023-04-25T01:33:14;0.10;;;0.10;;
42598;SDS011;28225;42.714;23.860;2023-04-25T01:33:30;0.20;;;0.20;;
42598;SDS011;28225;42.714;23.860;2023-04-25T01:33:46;0.20;;;0.20;;
42598;SDS011;28225;42.714;23.860;2023-04-25T01:34:02;0.20;;;0.20;;
42598;SDS011;28225;42.714;23.860;2023-04-25T01:34:17;0.20;;;0.20;;
42598;SDS011;28225;42.714;23.860;2023-04-25T01:34:33;0.30;;;0.30;;